createdAt,value
2022-11-28T00:00:36.633Z,999.21
2022-11-28T00:01:36.401Z,999.20
2022-11-28T00:02:36.470Z,999.17
2022-11-28T00:03:36.417Z,999.11
2022-11-28T00:04:36.561Z,999.05
2022-11-28T00:05:36.341Z,999.04
2022-11-28T00:06:36.339Z,999.06
2022-11-28T00:07:36.335Z,998.98
2022-11-28T00:08:36.309Z,998.96
2022-11-28T00:09:36.514Z,998.96
2022-11-28T00:10:36.490Z,998.91
2022-11-28T00:11:36.292Z,998.92
2022-11-28T00:12:36.272Z,998.77
2022-11-28T00:13:36.260Z,998.76
2022-11-28T00:14:36.238Z,998.77
2022-11-28T00:15:36.491Z,998.86
2022-11-28T00:16:36.289Z,998.82
2022-11-28T00:17:36.198Z,998.83
2022-11-28T00:18:36.212Z,998.79
2022-11-28T00:19:36.386Z,998.80
2022-11-28T00:20:36.174Z,998.80
2022-11-28T00:21:36.346Z,998.77
2022-11-28T00:22:36.127Z,998.75
2022-11-28T00:23:36.117Z,998.76
2022-11-28T00:24:36.107Z,998.77
2022-11-28T00:25:36.087Z,998.75
2022-11-28T00:26:36.296Z,998.76
2022-11-28T00:27:36.066Z,998.71
2022-11-28T00:28:36.057Z,998.82
2022-11-28T00:29:36.045Z,998.74
2022-11-28T00:30:36.034Z,998.79
2022-11-28T00:31:36.316Z,998.74
2022-11-28T00:32:36.011Z,998.78
2022-11-28T00:33:35.998Z,998.85
2022-11-28T00:34:35.974Z,998.85
2022-11-28T00:35:35.964Z,998.92
2022-11-28T00:36:35.972Z,998.89
2022-11-28T00:37:35.936Z,998.91
2022-11-28T00:38:35.935Z,998.86
2022-11-28T00:39:36.142Z,998.88
2022-11-28T00:40:35.897Z,998.91
2022-11-28T00:41:36.094Z,998.86
2022-11-28T00:42:35.874Z,998.79
2022-11-28T00:43:35.854Z,998.90
2022-11-28T00:44:35.846Z,998.85
2022-11-28T00:45:35.872Z,998.79
2022-11-28T00:46:35.830Z,998.81
2022-11-28T00:47:36.035Z,998.78
2022-11-28T00:48:35.793Z,998.65
2022-11-28T00:49:35.781Z,998.69
2022-11-28T00:50:35.762Z,998.74
2022-11-28T00:51:35.765Z,998.71
2022-11-28T00:52:35.944Z,998.75
2022-11-28T00:53:35.730Z,998.81
2022-11-28T00:54:35.931Z,998.81
2022-11-28T00:55:35.700Z,998.72
2022-11-28T00:56:35.700Z,998.78
2022-11-28T00:57:35.894Z,998.88
2022-11-28T00:58:35.669Z,998.78
2022-11-28T00:59:35.642Z,998.91
2022-11-28T01:00:35.639Z,998.80
2022-11-28T01:01:35.750Z,998.88
2022-11-28T01:02:35.640Z,998.78
2022-11-28T01:03:35.839Z,998.71
2022-11-28T01:04:35.591Z,998.78
2022-11-28T01:05:35.577Z,998.63
2022-11-28T01:06:35.781Z,998.61
2022-11-28T01:07:35.589Z,998.65
2022-11-28T01:08:35.717Z,998.54
2022-11-28T01:09:35.720Z,998.60
2022-11-28T01:10:35.513Z,998.50
2022-11-28T01:11:35.727Z,998.58
2022-11-28T01:12:35.709Z,998.47
2022-11-28T01:13:35.477Z,998.41
2022-11-28T01:14:35.649Z,998.51
2022-11-28T01:15:35.448Z,998.42
2022-11-28T01:16:35.493Z,998.44
2022-11-28T01:17:35.418Z,998.38
2022-11-28T01:18:36.066Z,998.44
2022-11-28T01:19:35.396Z,998.41
2022-11-28T01:20:35.376Z,998.46
2022-11-28T01:21:35.374Z,998.38
2022-11-28T01:22:35.358Z,998.39
2022-11-28T01:23:35.535Z,998.40
2022-11-28T01:24:35.324Z,998.36
2022-11-28T01:25:35.314Z,998.35
2022-11-28T01:26:35.507Z,998.22
2022-11-28T01:27:35.294Z,998.31
2022-11-28T01:28:35.494Z,998.39
2022-11-28T01:29:35.260Z,998.34
2022-11-28T01:30:35.251Z,998.37
2022-11-28T01:31:35.294Z,998.34
2022-11-28T01:32:35.225Z,998.34
2022-11-28T01:33:35.222Z,998.29
2022-11-28T01:34:35.422Z,998.36
2022-11-28T01:35:35.195Z,998.36
2022-11-28T01:36:35.170Z,998.22
2022-11-28T01:37:35.175Z,998.25
2022-11-28T01:38:35.142Z,998.27
2022-11-28T01:39:35.382Z,998.25
2022-11-28T01:40:35.124Z,998.29
2022-11-28T01:41:35.111Z,998.21
2022-11-28T01:42:35.328Z,998.16
2022-11-28T01:43:35.078Z,998.19
2022-11-28T01:44:35.270Z,998.21
2022-11-28T01:45:35.265Z,998.23
2022-11-28T01:46:35.303Z,998.19
2022-11-28T01:47:35.033Z,998.30
2022-11-28T01:48:35.015Z,998.24
2022-11-28T01:49:35.019Z,998.34
2022-11-28T01:50:34.995Z,998.18
2022-11-28T01:51:35.259Z,998.23
2022-11-28T01:52:34.966Z,998.19
2022-11-28T01:53:34.968Z,998.15
2022-11-28T01:54:35.148Z,998.15
2022-11-28T01:55:34.939Z,998.12
2022-11-28T01:56:34.918Z,998.01
2022-11-28T01:57:35.101Z,998.09
2022-11-28T01:58:34.881Z,998.11
2022-11-28T01:59:34.885Z,998.17
2022-11-28T02:00:34.979Z,998.11
2022-11-28T02:01:35.081Z,998.06
2022-11-28T02:02:35.164Z,998.10
2022-11-28T02:03:34.826Z,998.08
2022-11-28T02:04:34.806Z,998.07
2022-11-28T02:05:34.797Z,998.00
2022-11-28T02:06:34.779Z,998.03
2022-11-28T02:07:35.074Z,997.96
2022-11-28T02:08:34.768Z,998.02
2022-11-28T02:09:34.755Z,998.07
2022-11-28T02:10:34.937Z,998.15
2022-11-28T02:11:34.725Z,997.95
2022-11-28T02:12:34.712Z,997.97
2022-11-28T02:13:34.695Z,997.93
2022-11-28T02:14:34.675Z,998.03
2022-11-28T02:15:34.875Z,997.98
2022-11-28T02:16:34.747Z,997.86
2022-11-28T02:17:34.648Z,997.91
2022-11-28T02:18:34.845Z,997.95
2022-11-28T02:19:34.612Z,997.88
2022-11-28T02:20:34.783Z,997.93
2022-11-28T02:21:34.797Z,997.88
2022-11-28T02:22:34.583Z,997.79
2022-11-28T02:23:34.572Z,997.78
2022-11-28T02:24:34.546Z,997.82
2022-11-28T02:25:34.540Z,997.82
2022-11-28T02:26:34.733Z,997.71
2022-11-28T02:27:34.531Z,997.74
2022-11-28T02:28:34.701Z,997.59
2022-11-28T02:29:34.483Z,997.72
2022-11-28T02:30:34.480Z,997.75
2022-11-28T02:31:34.568Z,997.70
2022-11-28T02:32:34.668Z,997.73
2022-11-28T02:33:34.453Z,997.70
2022-11-28T02:34:34.420Z,997.68
2022-11-28T02:35:34.649Z,997.68
2022-11-28T02:36:34.409Z,997.69
2022-11-28T02:37:34.379Z,997.64
2022-11-28T02:38:34.379Z,997.68
2022-11-28T02:39:34.359Z,997.65
2022-11-28T02:40:34.560Z,997.65
2022-11-28T02:41:34.518Z,997.59
2022-11-28T02:42:34.370Z,997.61
2022-11-28T02:43:34.529Z,997.63
2022-11-28T02:44:34.289Z,997.63
2022-11-28T02:45:34.278Z,997.67
2022-11-28T02:46:34.504Z,997.66
2022-11-28T02:47:34.247Z,997.71
2022-11-28T02:48:34.250Z,997.70
2022-11-28T02:49:34.457Z,997.70
2022-11-28T02:50:34.218Z,997.62
2022-11-28T02:51:34.196Z,997.70
2022-11-28T02:52:34.188Z,997.65
2022-11-28T02:53:34.376Z,997.69
2022-11-28T02:54:34.167Z,997.65
2022-11-28T02:55:34.367Z,997.62
2022-11-28T02:56:34.139Z,997.55
2022-11-28T02:57:34.116Z,997.61
2022-11-28T02:58:34.331Z,997.59
2022-11-28T02:59:34.104Z,997.58
2022-11-28T03:00:34.131Z,997.63
2022-11-28T03:01:34.104Z,997.60
2022-11-28T03:02:34.311Z,997.58
2022-11-28T03:03:34.244Z,997.63
2022-11-28T03:04:34.064Z,997.57
2022-11-28T03:05:34.014Z,997.50
2022-11-28T03:06:34.225Z,997.57
2022-11-28T03:07:34.270Z,997.49
2022-11-28T03:08:33.980Z,997.58
2022-11-28T03:09:34.183Z,997.66
2022-11-28T03:10:33.953Z,997.53
2022-11-28T03:11:33.932Z,997.51
2022-11-28T03:12:33.934Z,997.51
2022-11-28T03:13:33.920Z,997.45
2022-11-28T03:14:55.112Z,997.43
2022-11-28T03:15:33.890Z,997.49
2022-11-28T03:16:33.895Z,997.50
2022-11-28T03:17:33.869Z,997.58
2022-11-28T03:18:34.072Z,997.55
2022-11-28T03:19:33.837Z,997.63
2022-11-28T03:20:33.820Z,997.60
2022-11-28T03:21:33.811Z,997.68
2022-11-28T03:22:33.791Z,997.62
2022-11-28T03:23:34.009Z,997.70
2022-11-28T03:24:33.770Z,997.71
2022-11-28T03:25:33.768Z,997.60
2022-11-28T03:26:33.748Z,997.72
2022-11-28T03:27:33.743Z,997.75
2022-11-28T03:28:33.921Z,997.75
2022-11-28T03:29:33.710Z,997.77
2022-11-28T03:30:33.887Z,997.77
2022-11-28T03:31:33.924Z,997.80
2022-11-28T03:32:33.658Z,997.83
2022-11-28T03:33:33.897Z,997.80
2022-11-28T03:34:33.636Z,997.88
2022-11-28T03:35:33.626Z,997.89
2022-11-28T03:36:33.615Z,997.91
2022-11-28T03:37:33.608Z,997.86
2022-11-28T03:38:33.778Z,997.90
2022-11-28T03:39:33.766Z,997.82
2022-11-28T03:40:33.563Z,997.85
2022-11-28T03:41:33.768Z,997.78
2022-11-28T03:42:33.525Z,997.81
2022-11-28T03:43:33.735Z,997.86
2022-11-28T03:44:33.744Z,997.83
2022-11-28T03:45:33.495Z,997.76
2022-11-28T03:46:33.522Z,997.82
2022-11-28T03:47:33.474Z,997.74
2022-11-28T03:48:33.662Z,997.76
2022-11-28T03:49:33.456Z,997.77
2022-11-28T03:50:33.433Z,997.79
2022-11-28T03:51:33.415Z,997.79
2022-11-28T03:52:33.404Z,997.80
2022-11-28T03:53:33.585Z,997.77
2022-11-28T03:54:33.376Z,997.83
2022-11-28T03:55:33.444Z,997.77
2022-11-28T03:56:33.552Z,997.80
2022-11-28T03:57:33.355Z,997.77
2022-11-28T03:58:33.522Z,997.78
2022-11-28T03:59:33.316Z,997.76
2022-11-28T04:00:33.303Z,997.80
2022-11-28T04:01:33.403Z,997.77
2022-11-28T04:02:33.315Z,997.85
2022-11-28T04:03:33.554Z,997.77
2022-11-28T04:04:33.241Z,997.66
2022-11-28T04:05:33.270Z,997.68
2022-11-28T04:06:33.221Z,997.63
2022-11-28T04:07:33.487Z,997.73
2022-11-28T04:08:33.396Z,997.64
2022-11-28T04:09:33.183Z,997.71
2022-11-28T04:10:33.169Z,997.68
2022-11-28T04:11:33.160Z,997.65
2022-11-28T04:12:33.149Z,997.70
2022-11-28T04:13:33.329Z,997.73
2022-11-28T04:14:33.343Z,997.70
2022-11-28T04:15:33.110Z,997.74
2022-11-28T04:16:33.326Z,997.70
2022-11-28T04:17:33.079Z,997.63
2022-11-28T04:18:33.069Z,997.68
2022-11-28T04:19:33.078Z,997.64
2022-11-28T04:20:33.049Z,997.67
2022-11-28T04:21:33.034Z,997.61
2022-11-28T04:22:33.024Z,997.65
2022-11-28T04:23:32.998Z,997.60
2022-11-28T04:24:33.197Z,997.75
2022-11-28T04:25:33.214Z,997.65
2022-11-28T04:26:33.206Z,997.72
2022-11-28T04:27:32.947Z,997.65
2022-11-28T04:28:32.947Z,997.62
2022-11-28T04:29:32.926Z,997.61
2022-11-28T04:30:32.915Z,997.59
2022-11-28T04:31:33.169Z,997.57
2022-11-28T04:32:32.906Z,997.58
2022-11-28T04:33:33.095Z,997.56
2022-11-28T04:34:32.865Z,997.58
2022-11-28T04:35:32.844Z,997.42
2022-11-28T04:36:33.032Z,997.51
2022-11-28T04:37:32.824Z,997.45
2022-11-28T04:38:32.814Z,997.46
2022-11-28T04:39:32.795Z,997.55
2022-11-28T04:40:32.795Z,997.56
2022-11-28T04:41:33.014Z,997.53
2022-11-28T04:42:32.770Z,997.45
2022-11-28T04:43:32.743Z,997.54
2022-11-28T04:44:32.734Z,997.51
2022-11-28T04:45:32.969Z,997.50
2022-11-28T04:46:32.711Z,997.50
2022-11-28T04:47:32.743Z,997.55
2022-11-28T04:48:34.387Z,997.54
2022-11-28T04:49:32.881Z,997.53
2022-11-28T04:50:32.665Z,997.59
2022-11-28T04:51:32.641Z,997.61
2022-11-28T04:52:32.661Z,997.73
2022-11-28T04:53:32.632Z,997.58
2022-11-28T04:54:32.621Z,997.52
2022-11-28T04:55:32.593Z,997.50
2022-11-28T04:56:32.581Z,997.51
2022-11-28T04:57:32.590Z,997.58
2022-11-28T04:58:32.563Z,997.51
2022-11-28T04:59:32.650Z,997.52
2022-11-28T05:00:32.785Z,997.57
2022-11-28T05:01:32.522Z,997.58
2022-11-28T05:02:32.541Z,997.58
2022-11-28T05:03:32.481Z,997.58
2022-11-28T05:04:32.499Z,997.57
2022-11-28T05:05:32.683Z,997.62
2022-11-28T05:06:32.447Z,997.63
2022-11-28T05:07:32.473Z,997.57
2022-11-28T05:08:32.429Z,997.54
2022-11-28T05:09:32.408Z,997.53
2022-11-28T05:10:32.416Z,997.55
2022-11-28T05:11:32.607Z,997.60
2022-11-28T05:12:32.378Z,997.60
2022-11-28T05:13:32.357Z,997.51
2022-11-28T05:14:32.377Z,997.48
2022-11-28T05:15:32.335Z,997.62
2022-11-28T05:16:32.361Z,997.50
2022-11-28T05:17:32.548Z,997.48
2022-11-28T05:18:32.298Z,997.45
2022-11-28T05:19:32.275Z,997.47
2022-11-28T05:20:32.276Z,997.44
2022-11-28T05:21:32.257Z,997.46
2022-11-28T05:22:32.235Z,997.50
2022-11-28T05:23:32.254Z,997.54
2022-11-28T05:24:32.580Z,997.59
2022-11-28T05:25:32.430Z,997.54
2022-11-28T05:26:32.196Z,997.66
2022-11-28T05:27:32.174Z,997.67
2022-11-28T05:28:32.173Z,997.65
2022-11-28T05:29:32.154Z,997.80
2022-11-28T05:30:32.433Z,997.86
2022-11-28T05:31:32.196Z,997.84
2022-11-28T05:32:32.117Z,997.83
2022-11-28T05:33:32.092Z,997.90
2022-11-28T05:34:32.095Z,997.89
2022-11-28T05:35:32.302Z,997.99
2022-11-28T05:36:32.071Z,997.96
2022-11-28T05:37:32.253Z,997.97
2022-11-28T05:38:32.045Z,997.90
2022-11-28T05:39:32.011Z,998.00
2022-11-28T05:40:32.023Z,998.00
2022-11-28T05:41:32.205Z,997.94
2022-11-28T05:42:31.982Z,997.94
2022-11-28T05:43:31.963Z,997.83
2022-11-28T05:44:31.962Z,997.85
2022-11-28T05:45:32.006Z,997.85
2022-11-28T05:46:32.146Z,997.82
2022-11-28T05:47:31.920Z,997.87
2022-11-28T05:48:31.907Z,997.89
2022-11-28T05:49:31.900Z,997.88
2022-11-28T05:50:35.708Z,997.79
2022-11-28T05:51:33.078Z,997.88
2022-11-28T05:52:32.085Z,997.86
2022-11-28T05:53:31.838Z,997.84
2022-11-28T05:54:31.838Z,997.87
2022-11-28T05:55:31.820Z,997.76
2022-11-28T05:56:32.020Z,997.73
2022-11-28T05:57:31.786Z,997.76
2022-11-28T05:58:31.779Z,997.81
2022-11-28T05:59:32.009Z,997.79
2022-11-28T06:00:31.767Z,997.85
2022-11-28T06:01:31.746Z,997.76
2022-11-28T06:02:31.847Z,997.78
2022-11-28T06:03:31.718Z,997.78
2022-11-28T06:04:31.937Z,997.72
2022-11-28T06:05:46.178Z,997.74
2022-11-28T06:06:32.688Z,997.69
2022-11-28T06:07:31.702Z,997.73
2022-11-28T06:08:31.647Z,997.71
2022-11-28T06:09:31.638Z,997.70
2022-11-28T06:10:31.626Z,997.68
2022-11-28T06:11:31.604Z,997.65
2022-11-28T06:12:31.625Z,997.61
2022-11-28T06:13:31.585Z,997.52
2022-11-28T06:14:31.574Z,997.58
2022-11-28T06:15:34.940Z,997.54
2022-11-28T06:16:32.583Z,997.54
2022-11-28T06:17:31.756Z,997.55
2022-11-28T06:18:31.533Z,997.55
2022-11-28T06:19:31.703Z,997.49
2022-11-28T06:20:31.501Z,997.53
2022-11-28T06:21:31.503Z,997.48
2022-11-28T06:22:31.661Z,997.51
2022-11-28T06:23:31.443Z,997.53
2022-11-28T06:24:31.567Z,997.56
2022-11-28T06:25:31.433Z,997.50
2022-11-28T06:26:31.412Z,997.50
2022-11-28T06:27:31.422Z,997.49
2022-11-28T06:28:31.394Z,997.54
2022-11-28T06:29:31.593Z,997.57
2022-11-28T06:30:31.472Z,997.62
2022-11-28T06:31:31.425Z,997.59
2022-11-28T06:32:31.333Z,997.54
2022-11-28T06:33:31.322Z,997.58
2022-11-28T06:34:31.541Z,997.62
2022-11-28T06:35:32.032Z,997.58
2022-11-28T06:36:31.310Z,997.57
2022-11-28T06:37:31.282Z,997.56
2022-11-28T06:38:31.268Z,997.62
2022-11-28T06:39:31.473Z,997.52
2022-11-28T06:40:31.240Z,997.55
2022-11-28T06:41:31.221Z,997.55
2022-11-28T06:42:31.223Z,997.62
2022-11-28T06:43:31.197Z,997.51
2022-11-28T06:44:31.411Z,997.50
2022-11-28T06:45:31.226Z,997.54
2022-11-28T06:46:31.406Z,997.49
2022-11-28T06:47:31.148Z,997.58
2022-11-28T06:48:31.130Z,997.50
2022-11-28T06:49:31.117Z,997.48
2022-11-28T06:50:31.109Z,997.53
2022-11-28T06:51:31.296Z,997.53
2022-11-28T06:52:31.068Z,997.59
2022-11-28T06:53:31.738Z,997.57
2022-11-28T06:54:31.256Z,997.50
2022-11-28T06:55:31.046Z,997.60
2022-11-28T06:56:31.045Z,997.61
2022-11-28T06:57:31.013Z,997.51
2022-11-28T06:58:31.003Z,997.55
2022-11-28T06:59:31.016Z,997.54
2022-11-28T07:00:30.985Z,997.55
2022-11-28T07:01:31.034Z,997.57
2022-11-28T07:02:30.999Z,997.54
2022-11-28T07:03:30.937Z,997.54
2022-11-28T07:04:31.094Z,997.59
2022-11-28T07:05:30.915Z,997.62
2022-11-28T07:06:30.935Z,997.60
2022-11-28T07:07:31.120Z,997.59
2022-11-28T07:08:30.875Z,997.64
2022-11-28T07:09:31.093Z,997.67
2022-11-28T07:10:31.061Z,997.65
2022-11-28T07:11:30.832Z,997.68
2022-11-28T07:12:30.813Z,997.75
2022-11-28T07:13:30.805Z,997.64
2022-11-28T07:14:30.802Z,997.79
2022-11-28T07:15:30.801Z,997.78
2022-11-28T07:16:30.815Z,997.79
2022-11-28T07:17:30.751Z,997.80
2022-11-28T07:18:30.743Z,997.75
2022-11-28T07:19:30.960Z,997.76
2022-11-28T07:20:30.713Z,997.84
2022-11-28T07:21:30.900Z,997.80
2022-11-28T07:22:30.690Z,997.81
2022-11-28T07:23:30.670Z,997.83
2022-11-28T07:24:30.890Z,997.83
2022-11-28T07:25:30.649Z,997.84
2022-11-28T07:26:30.661Z,997.83
2022-11-28T07:27:30.620Z,997.88
2022-11-28T07:28:30.612Z,997.85
2022-11-28T07:29:30.883Z,997.80
2022-11-28T07:30:30.581Z,997.88
2022-11-28T07:31:30.645Z,997.85
2022-11-28T07:32:30.559Z,997.79
2022-11-28T07:33:30.539Z,997.73
2022-11-28T07:34:30.758Z,997.79
2022-11-28T07:35:30.517Z,997.78
2022-11-28T07:36:30.518Z,997.76
2022-11-28T07:37:30.697Z,997.77
2022-11-28T07:38:30.487Z,997.78
2022-11-28T07:39:30.480Z,997.89
2022-11-28T07:40:30.685Z,997.97
2022-11-28T07:41:30.463Z,998.03
2022-11-28T07:42:30.635Z,997.93
2022-11-28T07:43:30.416Z,997.97
2022-11-28T07:44:30.406Z,997.91
2022-11-28T07:45:47.396Z,997.96
2022-11-28T07:46:31.439Z,997.90
2022-11-28T07:47:30.386Z,997.85
2022-11-28T07:48:30.366Z,997.93
2022-11-28T07:49:30.334Z,997.91
2022-11-28T07:50:30.566Z,997.93
2022-11-28T07:51:30.306Z,997.93
2022-11-28T07:52:30.297Z,997.86
2022-11-28T07:53:30.497Z,997.93
2022-11-28T07:54:30.633Z,997.92
2022-11-28T07:55:30.254Z,997.96
2022-11-28T07:56:50.076Z,997.88
2022-11-28T07:57:31.443Z,997.90
2022-11-28T07:58:30.233Z,997.85
2022-11-28T07:59:30.217Z,997.88
2022-11-28T08:00:30.204Z,997.94
2022-11-28T08:01:30.402Z,997.88
2022-11-28T08:02:30.222Z,997.90
2022-11-28T08:03:30.162Z,997.91
2022-11-28T08:04:30.200Z,997.90
2022-11-28T08:05:30.123Z,997.94
2022-11-28T08:06:30.121Z,997.99
2022-11-28T08:07:30.364Z,997.94
2022-11-28T08:08:30.311Z,997.93
2022-11-28T08:09:30.079Z,997.92
2022-11-28T08:10:30.271Z,997.94
2022-11-28T08:11:30.050Z,997.93
2022-11-28T08:12:30.041Z,997.89
2022-11-28T08:13:30.021Z,997.89
2022-11-28T08:14:30.049Z,997.89
2022-11-28T08:15:30.003Z,997.84
2022-11-28T08:16:30.069Z,997.83
2022-11-28T08:17:29.980Z,997.84
2022-11-28T08:18:29.988Z,997.96
2022-11-28T08:20:17.324Z,997.89
2022-11-28T08:20:30.928Z,997.93
2022-11-28T08:21:29.928Z,997.90
2022-11-28T08:22:30.210Z,997.94
2022-11-28T08:23:29.896Z,997.90
2022-11-28T08:24:29.891Z,997.84
2022-11-28T08:25:29.878Z,997.91
2022-11-28T08:26:31.002Z,997.89
2022-11-28T08:27:29.840Z,997.83
2022-11-28T08:28:29.858Z,997.94
2022-11-28T08:29:29.817Z,997.89
2022-11-28T08:30:30.062Z,997.89
2022-11-28T08:31:29.870Z,997.86
2022-11-28T08:32:29.785Z,997.90
2022-11-28T08:33:30.005Z,997.94
2022-11-28T08:34:29.765Z,997.88
2022-11-28T08:35:29.744Z,997.86
2022-11-28T08:36:29.845Z,997.87
2022-11-28T08:37:29.714Z,997.90
2022-11-28T08:38:29.906Z,997.86
2022-11-28T08:39:29.687Z,997.88
2022-11-28T08:40:29.684Z,997.87
2022-11-28T08:41:29.664Z,997.86
2022-11-28T08:42:29.876Z,997.89
2022-11-28T08:43:29.634Z,997.88
2022-11-28T08:44:30.789Z,997.90
2022-11-28T08:45:29.677Z,997.98
2022-11-28T08:46:29.657Z,997.95
2022-11-28T08:47:29.795Z,997.94
2022-11-28T08:48:29.582Z,997.98
2022-11-28T08:49:29.562Z,998.05
2022-11-28T08:50:29.551Z,998.06
2022-11-28T08:51:29.540Z,998.01
2022-11-28T08:52:29.754Z,998.00
2022-11-28T08:53:29.713Z,998.03
2022-11-28T08:54:29.722Z,998.01
2022-11-28T08:55:32.074Z,997.98
2022-11-28T08:56:29.479Z,998.00
2022-11-28T08:57:29.451Z,998.04
2022-11-28T08:58:29.671Z,998.04
2022-11-28T08:59:29.439Z,998.02
2022-11-28T09:00:29.422Z,998.04
2022-11-28T09:01:29.468Z,998.06
2022-11-28T09:02:29.600Z,998.08
2022-11-28T09:03:29.426Z,998.05
2022-11-28T09:04:29.400Z,998.03
2022-11-28T09:05:29.349Z,998.10
2022-11-28T09:06:29.345Z,998.08
2022-11-28T09:07:29.411Z,998.11
2022-11-28T09:08:29.319Z,998.13
2022-11-28T09:09:32.743Z,998.14
2022-11-28T09:10:29.509Z,998.11
2022-11-28T09:11:29.281Z,998.10
2022-11-28T09:12:29.268Z,998.09
2022-11-28T09:13:29.247Z,998.08
2022-11-28T09:14:29.437Z,998.04
2022-11-28T09:15:29.226Z,998.09
2022-11-28T09:16:29.303Z,998.03
2022-11-28T09:17:29.196Z,998.10
2022-11-28T09:18:29.195Z,998.10
2022-11-28T09:19:29.408Z,998.07
2022-11-28T09:20:29.169Z,998.14
2022-11-28T09:21:29.336Z,998.14
2022-11-28T09:22:29.135Z,998.14
2022-11-28T09:23:29.120Z,998.13
2022-11-28T09:24:29.145Z,998.16
2022-11-28T09:25:29.096Z,998.12
2022-11-28T09:26:29.085Z,998.18
2022-11-28T09:27:29.096Z,998.17
2022-11-28T09:28:29.053Z,998.19
2022-11-28T09:29:29.054Z,998.17
2022-11-28T09:30:29.281Z,998.21
2022-11-28T09:31:29.079Z,998.24
2022-11-28T09:32:29.011Z,998.26
2022-11-28T09:33:28.988Z,998.25
2022-11-28T09:34:28.989Z,998.25
2022-11-28T09:35:29.176Z,998.31
2022-11-28T09:36:28.953Z,998.27
2022-11-28T09:37:28.943Z,998.27
2022-11-28T09:38:28.937Z,998.29
2022-11-28T09:39:39.584Z,998.25
2022-11-28T09:40:30.121Z,998.29
2022-11-28T09:41:29.113Z,998.30
2022-11-28T09:42:28.881Z,998.29
2022-11-28T09:43:28.860Z,998.33
2022-11-28T09:44:28.851Z,998.37
2022-11-28T09:45:28.831Z,998.29
2022-11-28T09:46:28.930Z,998.30
2022-11-28T09:47:29.000Z,998.31
2022-11-28T09:48:29.032Z,998.29
2022-11-28T09:49:28.779Z,998.31
2022-11-28T09:50:28.779Z,998.25
2022-11-28T09:51:28.757Z,998.28
2022-11-28T09:52:28.832Z,998.23
2022-11-28T09:53:28.752Z,998.28
2022-11-28T09:54:28.721Z,998.26
2022-11-28T09:55:28.913Z,998.27
2022-11-28T09:56:28.698Z,998.24
2022-11-28T09:57:28.687Z,998.22
2022-11-28T09:58:28.678Z,998.30
2022-11-28T09:59:28.659Z,998.25
2022-11-28T10:00:28.847Z,998.28
2022-11-28T10:01:28.657Z,998.28
2022-11-28T10:02:28.627Z,998.34
2022-11-28T10:03:28.835Z,998.29
2022-11-28T10:04:28.662Z,998.26
2022-11-28T10:05:28.597Z,998.33
2022-11-28T10:06:28.597Z,998.23
2022-11-28T10:07:28.589Z,998.29
2022-11-28T10:08:28.779Z,998.31
2022-11-28T10:09:28.745Z,998.31
2022-11-28T10:10:28.517Z,998.30
2022-11-28T10:11:28.496Z,998.26
2022-11-28T10:12:28.485Z,998.29
2022-11-28T10:13:36.553Z,998.24
2022-11-28T10:14:29.674Z,998.28
2022-11-28T10:15:28.454Z,998.29
2022-11-28T10:16:28.485Z,998.27
2022-11-28T10:17:28.433Z,998.28
2022-11-28T10:18:28.654Z,998.23
2022-11-28T10:20:29.384Z,998.28
2022-11-28T10:21:28.372Z,998.30
2022-11-28T10:22:28.353Z,998.29
2022-11-28T10:23:28.353Z,998.27
2022-11-28T10:24:28.346Z,998.23
2022-11-28T10:25:28.313Z,998.24
2022-11-28T10:26:28.301Z,998.26
2022-11-28T10:27:28.292Z,998.27
2022-11-28T10:28:28.470Z,998.25
2022-11-28T10:29:28.270Z,998.31
2022-11-28T10:30:28.251Z,998.27
2022-11-28T10:31:28.310Z,998.28
2022-11-28T10:32:28.470Z,998.25
2022-11-28T10:33:28.220Z,998.27
2022-11-28T10:34:28.201Z,998.29
2022-11-28T10:35:28.840Z,998.32
2022-11-28T10:36:28.200Z,998.26
2022-11-28T10:37:28.160Z,998.30
2022-11-28T10:38:28.143Z,998.28
2022-11-28T10:39:28.140Z,998.27
2022-11-28T10:40:28.125Z,998.25
2022-11-28T10:41:28.329Z,998.25
2022-11-28T10:42:28.109Z,998.24
2022-11-28T10:43:28.088Z,998.30
2022-11-28T10:44:28.098Z,998.23
2022-11-28T10:45:28.058Z,998.22
2022-11-28T10:46:28.143Z,998.21
2022-11-28T10:47:28.268Z,998.26
2022-11-28T10:48:43.254Z,998.31
2022-11-28T10:49:29.015Z,998.22
2022-11-28T10:50:32.153Z,998.25
2022-11-28T10:51:28.195Z,998.25
2022-11-28T10:52:27.965Z,998.24
2022-11-28T10:53:27.961Z,998.24
2022-11-28T10:54:27.937Z,998.30
2022-11-28T10:55:27.957Z,998.30
2022-11-28T10:56:27.918Z,998.18
2022-11-28T10:57:28.145Z,998.23
2022-11-28T10:58:27.895Z,998.22
2022-11-28T10:59:27.886Z,998.18
2022-11-28T11:00:27.864Z,998.16
2022-11-28T11:01:27.877Z,998.13
2022-11-28T11:02:28.065Z,998.21
2022-11-28T11:03:27.824Z,998.14
2022-11-28T11:04:27.875Z,998.09
2022-11-28T11:05:27.884Z,998.23
2022-11-28T11:06:40.867Z,998.13
2022-11-28T11:07:29.940Z,998.17
2022-11-28T11:08:27.920Z,998.18
2022-11-28T11:09:27.834Z,998.14
2022-11-28T11:10:27.767Z,998.17
2022-11-28T11:11:27.726Z,998.18
2022-11-28T11:12:27.712Z,998.12
2022-11-28T11:13:27.912Z,998.18
2022-11-28T11:14:27.693Z,998.08
2022-11-28T11:15:27.675Z,998.16
2022-11-28T11:16:27.712Z,998.11
2022-11-28T11:17:32.630Z,998.05
2022-11-28T11:18:28.860Z,998.06
2022-11-28T11:19:27.613Z,998.05
2022-11-28T11:20:27.610Z,998.17
2022-11-28T11:21:27.590Z,998.07
2022-11-28T11:22:27.580Z,998.14
2022-11-28T11:23:27.771Z,998.16
2022-11-28T11:24:27.583Z,998.20
2022-11-28T11:25:27.541Z,998.17
2022-11-28T11:26:27.528Z,998.20
2022-11-28T11:27:27.718Z,998.17
2022-11-28T11:28:27.530Z,998.18
2022-11-28T11:29:27.493Z,998.17
2022-11-28T11:30:27.504Z,998.11
2022-11-28T11:31:27.521Z,998.12
2022-11-28T11:32:27.462Z,998.07
2022-11-28T11:33:27.617Z,998.20
2022-11-28T11:34:27.428Z,998.19
2022-11-28T11:35:27.408Z,998.12
2022-11-28T11:36:27.397Z,998.12
2022-11-28T11:37:27.619Z,998.19
2022-11-28T11:38:27.380Z,998.17
2022-11-28T11:39:27.359Z,998.12
2022-11-28T11:40:27.361Z,998.10
2022-11-28T11:41:27.335Z,998.13
2022-11-28T11:42:27.527Z,998.10
2022-11-28T11:43:27.308Z,998.13
2022-11-28T11:44:27.337Z,998.13
2022-11-28T11:45:27.276Z,998.17
2022-11-28T11:46:27.346Z,998.07
2022-11-28T11:47:27.497Z,998.16
2022-11-28T11:48:27.248Z,998.11
2022-11-28T11:49:27.225Z,998.12
2022-11-28T11:50:27.224Z,998.12
2022-11-28T11:51:27.405Z,998.17
2022-11-28T11:52:27.194Z,998.10
2022-11-28T11:53:27.176Z,998.14
2022-11-28T11:54:27.193Z,998.19
2022-11-28T11:55:27.165Z,998.22
2022-11-28T11:56:27.142Z,998.15
2022-11-28T11:57:34.823Z,998.23
2022-11-28T11:58:28.115Z,998.20
2022-11-28T11:59:27.094Z,998.19
2022-11-28T12:00:27.305Z,998.18
2022-11-28T12:01:27.073Z,998.19
2022-11-28T12:02:27.127Z,998.20
2022-11-28T12:03:27.173Z,998.24
2022-11-28T12:05:28.056Z,998.11
2022-11-28T12:06:27.012Z,998.18
2022-11-28T12:07:27.050Z,998.11
2022-11-28T12:08:26.982Z,998.18
2022-11-28T12:09:26.976Z,998.15
2022-11-28T12:10:26.974Z,998.21
2022-11-28T12:11:27.162Z,998.19
2022-11-28T12:12:26.938Z,998.19
2022-11-28T12:13:26.941Z,998.18
2022-11-28T12:14:26.914Z,998.21
2022-11-28T12:15:26.903Z,998.20
2022-11-28T12:16:26.961Z,998.25
2022-11-28T12:17:47.705Z,998.17
2022-11-28T12:18:28.067Z,998.26
2022-11-28T12:19:26.847Z,998.21
2022-11-28T12:20:26.828Z,998.17
2022-11-28T12:21:26.808Z,998.17
2022-11-28T12:22:26.834Z,998.19
2022-11-28T12:23:26.804Z,998.25
2022-11-28T12:24:26.789Z,998.22
2022-11-28T12:25:26.767Z,998.18
2022-11-28T12:26:26.949Z,998.27
2022-11-28T12:27:26.737Z,998.22
2022-11-28T12:28:26.937Z,998.23
2022-11-28T12:29:26.720Z,998.26
2022-11-28T12:30:26.710Z,998.27